sensor_id;sensor_type;location;lat;lon;timestamp;P1;durP1;ratioP1;P2;durP2;ratioP2
13816;SDS011;6979;52.116;5.286;2023-02-08T00:00:10;10.27;;;9.27;;
13816;SDS011;6979;52.116;5.286;2023-02-08T00:02:38;9.33;;;8.43;;
13816;SDS011;6979;52.116;5.286;2023-02-08T00:05:05;9.63;;;8.73;;
13816;SDS011;6979;52.116;5.286;2023-02-08T00:07:34;10.23;;;9.13;;
13816;SDS011;6979;52.116;5.286;2023-02-08T00:10:00;10.03;;;8.97;;
13816;SDS011;6979;52.116;5.286;2023-02-08T00:12:33;10.70;;;9.67;;
13816;SDS011;6979;52.116;5.286;2023-02-08T00:15:00;10.37;;;9.37;;
13816;SDS011;6979;52.116;5.286;2023-02-08T00:17:27;9.90;;;8.90;;
13816;SDS011;6979;52.116;5.286;2023-02-08T00:19:56;9.90;;;8.90;;
13816;SDS011;6979;52.116;5.286;2023-02-08T00:22:26;10.00;;;9.00;;
13816;SDS011;6979;52.116;5.286;2023-02-08T00:24:54;10.20;;;9.20;;
13816;SDS011;6979;52.116;5.286;2023-02-08T00:27:21;10.13;;;9.23;;
13816;SDS011;6979;52.116;5.286;2023-02-08T00:29:47;11.27;;;10.10;;
13816;SDS011;6979;52.116;5.286;2023-02-08T00:32:14;10.63;;;9.53;;
13816;SDS011;6979;52.116;5.286;2023-02-08T00:34:42;11.70;;;9.77;;
13816;SDS011;6979;52.116;5.286;2023-02-08T00:37:09;11.20;;;10.10;;
13816;SDS011;6979;52.116;5.286;2023-02-08T00:39:38;11.10;;;9.87;;
13816;SDS011;6979;52.116;5.286;2023-02-08T00:42:06;11.13;;;9.57;;
13816;SDS011;6979;52.116;5.286;2023-02-08T00:44:33;10.87;;;9.77;;
13816;SDS011;6979;52.116;5.286;2023-02-08T00:47:01;13.10;;;9.33;;
13816;SDS011;6979;52.116;5.286;2023-02-08T00:49:28;10.53;;;9.53;;
13816;SDS011;6979;52.116;5.286;2023-02-08T00:51:55;11.83;;;10.17;;
13816;SDS011;6979;52.116;5.286;2023-02-08T00:54:22;11.20;;;10.07;;
13816;SDS011;6979;52.116;5.286;2023-02-08T00:56:48;10.90;;;9.90;;
13816;SDS011;6979;52.116;5.286;2023-02-08T00:59:18;11.13;;;10.03;;
13816;SDS011;6979;52.116;5.286;2023-02-08T01:01:45;11.47;;;10.27;;
13816;SDS011;6979;52.116;5.286;2023-02-08T01:04:12;10.23;;;9.23;;
13816;SDS011;6979;52.116;5.286;2023-02-08T01:06:39;11.83;;;10.63;;
13816;SDS011;6979;52.116;5.286;2023-02-08T01:09:05;12.43;;;11.13;;
13816;SDS011;6979;52.116;5.286;2023-02-08T01:11:32;11.87;;;10.17;;
13816;SDS011;6979;52.116;5.286;2023-02-08T01:13:59;11.83;;;10.53;;
13816;SDS011;6979;52.116;5.286;2023-02-08T01:16:28;12.93;;;11.07;;
13816;SDS011;6979;52.116;5.286;2023-02-08T01:18:59;12.33;;;11.13;;
13816;SDS011;6979;52.116;5.286;2023-02-08T01:21:28;12.80;;;11.50;;
13816;SDS011;6979;52.116;5.286;2023-02-08T01:23:56;12.80;;;11.13;;
13816;SDS011;6979;52.116;5.286;2023-02-08T01:26:28;11.63;;;10.43;;
13816;SDS011;6979;52.116;5.286;2023-02-08T01:28:56;12.40;;;11.13;;
13816;SDS011;6979;52.116;5.286;2023-02-08T01:31:28;12.27;;;11.03;;
13816;SDS011;6979;52.116;5.286;2023-02-08T01:33:58;12.50;;;11.20;;
13816;SDS011;6979;52.116;5.286;2023-02-08T01:36:26;11.63;;;10.40;;
13816;SDS011;6979;52.116;5.286;2023-02-08T01:38:56;12.97;;;11.67;;
13816;SDS011;6979;52.116;5.286;2023-02-08T01:41:27;13.47;;;12.07;;
13816;SDS011;6979;52.116;5.286;2023-02-08T01:43:59;12.40;;;11.20;;
13816;SDS011;6979;52.116;5.286;2023-02-08T01:46:31;12.70;;;11.37;;
13816;SDS011;6979;52.116;5.286;2023-02-08T01:49:01;11.77;;;10.57;;
13816;SDS011;6979;52.116;5.286;2023-02-08T01:51:32;11.30;;;10.13;;
13816;SDS011;6979;52.116;5.286;2023-02-08T01:54:04;12.27;;;11.07;;
13816;SDS011;6979;52.116;5.286;2023-02-08T01:56:35;11.63;;;10.43;;
13816;SDS011;6979;52.116;5.286;2023-02-08T01:59:07;11.20;;;10.00;;
13816;SDS011;6979;52.116;5.286;2023-02-08T02:01:38;11.40;;;10.20;;
13816;SDS011;6979;52.116;5.286;2023-02-08T02:04:07;11.20;;;9.97;;
13816;SDS011;6979;52.116;5.286;2023-02-08T02:06:36;12.50;;;11.23;;
13816;SDS011;6979;52.116;5.286;2023-02-08T02:09:08;12.27;;;11.07;;
13816;SDS011;6979;52.116;5.286;2023-02-08T02:11:39;12.77;;;11.37;;
13816;SDS011;6979;52.116;5.286;2023-02-08T02:14:09;12.17;;;11.00;;
13816;SDS011;6979;52.116;5.286;2023-02-08T02:16:40;12.67;;;11.17;;
13816;SDS011;6979;52.116;5.286;2023-02-08T02:19:08;11.40;;;10.10;;
13816;SDS011;6979;52.116;5.286;2023-02-08T02:21:45;12.77;;;11.53;;
13816;SDS011;6979;52.116;5.286;2023-02-08T02:27:30;12.40;;;11.10;;
13816;SDS011;6979;52.116;5.286;2023-02-08T02:30:19;12.07;;;10.97;;
13816;SDS011;6979;52.116;5.286;2023-02-08T02:33:15;12.77;;;10.77;;
13816;SDS011;6979;52.116;5.286;2023-02-08T02:35:56;11.83;;;10.73;;
13816;SDS011;6979;52.116;5.286;2023-02-08T02:38:35;10.80;;;9.70;;
13816;SDS011;6979;52.116;5.286;2023-02-08T02:41:16;12.30;;;10.37;;
13816;SDS011;6979;52.116;5.286;2023-02-08T02:44:04;11.30;;;10.07;;
13816;SDS011;6979;52.116;5.286;2023-02-08T02:46:45;11.00;;;9.93;;
13816;SDS011;6979;52.116;5.286;2023-02-08T02:49:17;11.70;;;10.60;;
13816;SDS011;6979;52.116;5.286;2023-02-08T02:51:53;11.30;;;10.23;;
13816;SDS011;6979;52.116;5.286;2023-02-08T02:54:24;11.67;;;10.47;;
13816;SDS011;6979;52.116;5.286;2023-02-08T02:56:57;11.40;;;10.30;;
13816;SDS011;6979;52.116;5.286;2023-02-08T02:59:27;11.73;;;10.53;;
13816;SDS011;6979;52.116;5.286;2023-02-08T03:01:58;16.23;;;10.30;;
13816;SDS011;6979;52.116;5.286;2023-02-08T03:07:18;11.93;;;10.73;;
13816;SDS011;6979;52.116;5.286;2023-02-08T03:10:07;11.93;;;10.73;;
13816;SDS011;6979;52.116;5.286;2023-02-08T03:12:48;10.67;;;9.57;;
13816;SDS011;6979;52.116;5.286;2023-02-08T03:15:22;11.30;;;10.20;;
13816;SDS011;6979;52.116;5.286;2023-02-08T03:18:01;11.97;;;10.77;;
13816;SDS011;6979;52.116;5.286;2023-02-08T03:20:37;13.17;;;10.83;;
13816;SDS011;6979;52.116;5.286;2023-02-08T03:23:07;12.40;;;11.13;;
13816;SDS011;6979;52.116;5.286;2023-02-08T03:25:38;11.60;;;10.43;;
13816;SDS011;6979;52.116;5.286;2023-02-08T03:28:18;12.13;;;11.03;;
13816;SDS011;6979;52.116;5.286;2023-02-08T03:30:51;12.23;;;11.03;;
13816;SDS011;6979;52.116;5.286;2023-02-08T03:33:25;11.73;;;10.40;;
13816;SDS011;6979;52.116;5.286;2023-02-08T03:35:59;11.87;;;10.67;;
13816;SDS011;6979;52.116;5.286;2023-02-08T03:38:30;11.17;;;10.07;;
13816;SDS011;6979;52.116;5.286;2023-02-08T03:41:03;11.73;;;10.53;;
13816;SDS011;6979;52.116;5.286;2023-02-08T03:43:36;11.43;;;10.07;;
13816;SDS011;6979;52.116;5.286;2023-02-08T03:46:06;10.47;;;9.33;;
13816;SDS011;6979;52.116;5.286;2023-02-08T03:48:37;10.67;;;9.67;;
13816;SDS011;6979;52.116;5.286;2023-02-08T03:51:08;11.90;;;10.67;;
13816;SDS011;6979;52.116;5.286;2023-02-08T03:53:35;11.43;;;10.23;;
13816;SDS011;6979;52.116;5.286;2023-02-08T03:56:08;10.57;;;9.57;;
13816;SDS011;6979;52.116;5.286;2023-02-08T03:58:41;12.60;;;10.77;;
13816;SDS011;6979;52.116;5.286;2023-02-08T04:01:14;11.27;;;10.03;;
13816;SDS011;6979;52.116;5.286;2023-02-08T04:03:44;11.67;;;10.47;;
13816;SDS011;6979;52.116;5.286;2023-02-08T04:06:15;10.90;;;9.80;;
13816;SDS011;6979;52.116;5.286;2023-02-08T04:08:42;11.83;;;10.60;;
13816;SDS011;6979;52.116;5.286;2023-02-08T04:11:09;11.87;;;10.60;;
13816;SDS011;6979;52.116;5.286;2023-02-08T04:13:39;11.93;;;10.60;;
13816;SDS011;6979;52.116;5.286;2023-02-08T04:16:06;11.47;;;10.23;;
13816;SDS011;6979;52.116;5.286;2023-02-08T04:18:34;12.10;;;10.77;;
13816;SDS011;6979;52.116;5.286;2023-02-08T04:21:01;11.73;;;10.63;;
13816;SDS011;6979;52.116;5.286;2023-02-08T04:23:29;11.93;;;10.73;;
13816;SDS011;6979;52.116;5.286;2023-02-08T04:25:56;12.03;;;10.17;;
13816;SDS011;6979;52.116;5.286;2023-02-08T04:28:26;10.73;;;9.63;;
13816;SDS011;6979;52.116;5.286;2023-02-08T04:30:53;12.70;;;10.83;;
13816;SDS011;6979;52.116;5.286;2023-02-08T04:33:21;13.37;;;9.90;;
13816;SDS011;6979;52.116;5.286;2023-02-08T04:35:48;10.10;;;9.17;;
13816;SDS011;6979;52.116;5.286;2023-02-08T04:38:14;11.27;;;10.03;;
13816;SDS011;6979;52.116;5.286;2023-02-08T04:40:43;11.63;;;10.33;;
13816;SDS011;6979;52.116;5.286;2023-02-08T04:43:09;12.83;;;10.53;;
13816;SDS011;6979;52.116;5.286;2023-02-08T04:45:38;11.17;;;10.07;;
13816;SDS011;6979;52.116;5.286;2023-02-08T04:48:04;11.50;;;10.07;;
13816;SDS011;6979;52.116;5.286;2023-02-08T04:50:34;11.40;;;10.17;;
13816;SDS011;6979;52.116;5.286;2023-02-08T04:53:01;10.53;;;9.43;;
13816;SDS011;6979;52.116;5.286;2023-02-08T04:55:28;10.70;;;9.60;;
13816;SDS011;6979;52.116;5.286;2023-02-08T04:57:56;11.50;;;10.30;;
13816;SDS011;6979;52.116;5.286;2023-02-08T05:00:23;10.53;;;9.50;;
13816;SDS011;6979;52.116;5.286;2023-02-08T05:02:52;12.20;;;10.93;;
13816;SDS011;6979;52.116;5.286;2023-02-08T05:05:19;10.97;;;9.90;;
13816;SDS011;6979;52.116;5.286;2023-02-08T05:07:46;10.73;;;9.60;;
13816;SDS011;6979;52.116;5.286;2023-02-08T05:10:16;12.03;;;10.37;;
13816;SDS011;6979;52.116;5.286;2023-02-08T05:12:48;11.40;;;10.30;;
13816;SDS011;6979;52.116;5.286;2023-02-08T05:15:21;11.50;;;10.30;;
13816;SDS011;6979;52.116;5.286;2023-02-08T05:17:50;11.30;;;10.10;;
13816;SDS011;6979;52.116;5.286;2023-02-08T05:20:17;11.27;;;10.00;;
13816;SDS011;6979;52.116;5.286;2023-02-08T05:22:44;11.37;;;10.20;;
13816;SDS011;6979;52.116;5.286;2023-02-08T05:25:13;12.43;;;9.90;;
13816;SDS011;6979;52.116;5.286;2023-02-08T05:27:42;11.33;;;10.07;;
13816;SDS011;6979;52.116;5.286;2023-02-08T05:30:09;11.33;;;10.23;;
13816;SDS011;6979;52.116;5.286;2023-02-08T05:32:38;12.27;;;10.97;;
13816;SDS011;6979;52.116;5.286;2023-02-08T05:35:06;11.73;;;10.47;;
13816;SDS011;6979;52.116;5.286;2023-02-08T05:37:33;11.57;;;10.37;;
13816;SDS011;6979;52.116;5.286;2023-02-08T05:40:03;12.57;;;11.27;;
13816;SDS011;6979;52.116;5.286;2023-02-08T05:42:30;11.83;;;10.53;;
13816;SDS011;6979;52.116;5.286;2023-02-08T05:44:59;11.63;;;10.43;;
13816;SDS011;6979;52.116;5.286;2023-02-08T05:47:26;11.03;;;9.93;;
13816;SDS011;6979;52.116;5.286;2023-02-08T05:49:54;12.43;;;10.87;;
13816;SDS011;6979;52.116;5.286;2023-02-08T05:52:25;12.53;;;11.23;;
13816;SDS011;6979;52.116;5.286;2023-02-08T05:54:53;12.20;;;10.90;;
13816;SDS011;6979;52.116;5.286;2023-02-08T05:57:20;11.23;;;10.03;;
13816;SDS011;6979;52.116;5.286;2023-02-08T05:59:48;12.60;;;11.30;;
13816;SDS011;6979;52.116;5.286;2023-02-08T06:02:16;11.70;;;10.50;;
13816;SDS011;6979;52.116;5.286;2023-02-08T06:04:43;13.17;;;11.87;;
13816;SDS011;6979;52.116;5.286;2023-02-08T06:07:12;12.30;;;10.73;;
13816;SDS011;6979;52.116;5.286;2023-02-08T06:09:38;12.87;;;11.57;;
13816;SDS011;6979;52.116;5.286;2023-02-08T06:12:05;11.93;;;10.70;;
13816;SDS011;6979;52.116;5.286;2023-02-08T06:14:32;11.20;;;10.10;;
13816;SDS011;6979;52.116;5.286;2023-02-08T06:16:59;12.27;;;10.93;;
13816;SDS011;6979;52.116;5.286;2023-02-08T06:19:26;10.47;;;9.30;;
13816;SDS011;6979;52.116;5.286;2023-02-08T06:21:52;11.90;;;10.37;;
13816;SDS011;6979;52.116;5.286;2023-02-08T06:24:21;11.80;;;10.67;;
13816;SDS011;6979;52.116;5.286;2023-02-08T06:26:49;12.33;;;9.20;;
13816;SDS011;6979;52.116;5.286;2023-02-08T06:29:21;11.27;;;10.10;;
13816;SDS011;6979;52.116;5.286;2023-02-08T06:31:48;11.77;;;10.23;;
13816;SDS011;6979;52.116;5.286;2023-02-08T06:34:15;11.70;;;10.50;;
13816;SDS011;6979;52.116;5.286;2023-02-08T06:36:41;10.63;;;9.33;;
13816;SDS011;6979;52.116;5.286;2023-02-08T06:39:13;12.47;;;10.87;;
13816;SDS011;6979;52.116;5.286;2023-02-08T06:41:41;11.50;;;10.30;;
13816;SDS011;6979;52.116;5.286;2023-02-08T06:44:08;11.43;;;10.27;;
13816;SDS011;6979;52.116;5.286;2023-02-08T06:46:35;11.33;;;9.87;;
13816;SDS011;6979;52.116;5.286;2023-02-08T06:49:03;10.57;;;9.60;;
13816;SDS011;6979;52.116;5.286;2023-02-08T06:51:33;12.30;;;10.07;;
13816;SDS011;6979;52.116;5.286;2023-02-08T06:54:00;11.30;;;10.07;;
13816;SDS011;6979;52.116;5.286;2023-02-08T06:56:27;14.23;;;10.27;;
13816;SDS011;6979;52.116;5.286;2023-02-08T06:58:56;13.30;;;10.67;;
13816;SDS011;6979;52.116;5.286;2023-02-08T07:01:25;12.00;;;10.37;;
13816;SDS011;6979;52.116;5.286;2023-02-08T07:03:52;10.80;;;9.80;;
13816;SDS011;6979;52.116;5.286;2023-02-08T07:06:20;11.73;;;10.27;;
13816;SDS011;6979;52.116;5.286;2023-02-08T07:08:47;14.20;;;11.27;;
13816;SDS011;6979;52.116;5.286;2023-02-08T07:11:14;12.13;;;10.83;;
13816;SDS011;6979;52.116;5.286;2023-02-08T07:13:45;11.93;;;10.73;;
13816;SDS011;6979;52.116;5.286;2023-02-08T07:16:14;10.60;;;9.60;;
13816;SDS011;6979;52.116;5.286;2023-02-08T07:18:41;11.13;;;10.13;;
13816;SDS011;6979;52.116;5.286;2023-02-08T07:21:08;10.93;;;9.83;;
13816;SDS011;6979;52.116;5.286;2023-02-08T07:23:36;11.63;;;10.43;;
13816;SDS011;6979;52.116;5.286;2023-02-08T07:26:03;11.07;;;10.03;;
13816;SDS011;6979;52.116;5.286;2023-02-08T07:28:31;13.60;;;10.63;;
13816;SDS011;6979;52.116;5.286;2023-02-08T07:30:58;11.23;;;9.90;;
13816;SDS011;6979;52.116;5.286;2023-02-08T07:33:29;11.23;;;10.03;;
13816;SDS011;6979;52.116;5.286;2023-02-08T07:35:59;10.97;;;9.63;;
13816;SDS011;6979;52.116;5.286;2023-02-08T07:38:29;12.13;;;10.90;;
13816;SDS011;6979;52.116;5.286;2023-02-08T07:41:00;12.57;;;10.13;;
13816;SDS011;6979;52.116;5.286;2023-02-08T07:43:28;12.33;;;11.07;;
13816;SDS011;6979;52.116;5.286;2023-02-08T07:45:58;13.23;;;11.03;;
13816;SDS011;6979;52.116;5.286;2023-02-08T07:48:33;12.53;;;11.23;;
13816;SDS011;6979;52.116;5.286;2023-02-08T07:51:01;12.53;;;11.10;;
13816;SDS011;6979;52.116;5.286;2023-02-08T07:53:29;13.90;;;12.43;;
13816;SDS011;6979;52.116;5.286;2023-02-08T07:55:56;12.70;;;11.27;;
13816;SDS011;6979;52.116;5.286;2023-02-08T07:58:24;12.30;;;11.07;;
13816;SDS011;6979;52.116;5.286;2023-02-08T08:00:51;11.53;;;10.23;;
13816;SDS011;6979;52.116;5.286;2023-02-08T08:03:18;11.87;;;10.50;;
13816;SDS011;6979;52.116;5.286;2023-02-08T08:05:46;11.43;;;10.23;;
13816;SDS011;6979;52.116;5.286;2023-02-08T08:08:13;13.37;;;11.97;;
13816;SDS011;6979;52.116;5.286;2023-02-08T08:10:40;13.87;;;11.63;;
13816;SDS011;6979;52.116;5.286;2023-02-08T08:13:09;12.80;;;11.07;;
13816;SDS011;6979;52.116;5.286;2023-02-08T08:15:38;11.40;;;10.23;;
13816;SDS011;6979;52.116;5.286;2023-02-08T08:18:05;12.57;;;10.13;;
13816;SDS011;6979;52.116;5.286;2023-02-08T08:20:33;11.40;;;10.20;;
13816;SDS011;6979;52.116;5.286;2023-02-08T08:23:01;11.07;;;9.97;;
13816;SDS011;6979;52.116;5.286;2023-02-08T08:25:28;12.80;;;11.20;;
13816;SDS011;6979;52.116;5.286;2023-02-08T08:27:55;11.93;;;10.73;;
13816;SDS011;6979;52.116;5.286;2023-02-08T08:30:22;12.00;;;10.67;;
13816;SDS011;6979;52.116;5.286;2023-02-08T08:32:49;11.30;;;10.10;;
13816;SDS011;6979;52.116;5.286;2023-02-08T08:35:19;12.63;;;9.23;;
13816;SDS011;6979;52.116;5.286;2023-02-08T08:37:46;10.70;;;8.60;;
13816;SDS011;6979;52.116;5.286;2023-02-08T08:40:14;11.63;;;9.47;;
13816;SDS011;6979;52.116;5.286;2023-02-08T08:42:41;10.87;;;9.47;;
13816;SDS011;6979;52.116;5.286;2023-02-08T08:45:10;11.60;;;9.70;;
13816;SDS011;6979;52.116;5.286;2023-02-08T08:47:37;13.17;;;10.07;;
13816;SDS011;6979;52.116;5.286;2023-02-08T08:50:07;10.87;;;9.77;;
13816;SDS011;6979;52.116;5.286;2023-02-08T08:52:35;13.33;;;11.50;;
13816;SDS011;6979;52.116;5.286;2023-02-08T08:55:04;13.93;;;11.00;;
13816;SDS011;6979;52.116;5.286;2023-02-08T08:57:35;11.60;;;10.40;;
13816;SDS011;6979;52.116;5.286;2023-02-08T09:00:04;12.23;;;10.77;;
13816;SDS011;6979;52.116;5.286;2023-02-08T09:02:32;12.70;;;11.40;;
13816;SDS011;6979;52.116;5.286;2023-02-08T09:05:00;11.27;;;10.07;;
13816;SDS011;6979;52.116;5.286;2023-02-08T09:07:32;11.87;;;10.53;;
13816;SDS011;6979;52.116;5.286;2023-02-08T09:09:59;12.13;;;10.53;;
13816;SDS011;6979;52.116;5.286;2023-02-08T09:12:26;12.93;;;10.37;;
13816;SDS011;6979;52.116;5.286;2023-02-08T09:14:54;11.73;;;10.57;;
13816;SDS011;6979;52.116;5.286;2023-02-08T09:17:21;12.80;;;10.53;;
13816;SDS011;6979;52.116;5.286;2023-02-08T09:19:50;12.53;;;11.27;;
13816;SDS011;6979;52.116;5.286;2023-02-08T09:22:17;11.10;;;9.90;;
13816;SDS011;6979;52.116;5.286;2023-02-08T09:24:44;13.27;;;11.87;;
13816;SDS011;6979;52.116;5.286;2023-02-08T09:27:11;13.87;;;11.03;;
13816;SDS011;6979;52.116;5.286;2023-02-08T09:29:38;11.30;;;9.90;;
13816;SDS011;6979;52.116;5.286;2023-02-08T09:32:07;10.87;;;9.80;;
13816;SDS011;6979;52.116;5.286;2023-02-08T09:34:36;11.23;;;10.07;;
13816;SDS011;6979;52.116;5.286;2023-02-08T09:37:02;11.63;;;10.43;;
13816;SDS011;6979;52.116;5.286;2023-02-08T09:39:31;11.80;;;10.60;;
13816;SDS011;6979;52.116;5.286;2023-02-08T09:44:46;12.23;;;10.00;;
13816;SDS011;6979;52.116;5.286;2023-02-08T09:47:26;10.80;;;9.70;;
13816;SDS011;6979;52.116;5.286;2023-02-08T09:49:56;11.03;;;9.80;;
13816;SDS011;6979;52.116;5.286;2023-02-08T09:52:28;9.63;;;8.73;;
13816;SDS011;6979;52.116;5.286;2023-02-08T09:55:03;9.97;;;8.97;;
13816;SDS011;6979;52.116;5.286;2023-02-08T09:57:44;11.17;;;10.07;;
13816;SDS011;6979;52.116;5.286;2023-02-08T10:00:15;10.20;;;9.10;;
13816;SDS011;6979;52.116;5.286;2023-02-08T10:02:48;10.83;;;9.73;;
13816;SDS011;6979;52.116;5.286;2023-02-08T10:05:18;9.40;;;8.47;;
13816;SDS011;6979;52.116;5.286;2023-02-08T10:07:47;9.73;;;8.83;;
13816;SDS011;6979;52.116;5.286;2023-02-08T10:10:15;8.90;;;8.10;;
13816;SDS011;6979;52.116;5.286;2023-02-08T10:13:07;9.13;;;8.33;;
13816;SDS011;6979;52.116;5.286;2023-02-08T10:15:45;10.83;;;9.83;;
13816;SDS011;6979;52.116;5.286;2023-02-08T10:24:22;9.87;;;8.97;;
13816;SDS011;6979;52.116;5.286;2023-02-08T10:27:09;9.10;;;8.30;;
13816;SDS011;6979;52.116;5.286;2023-02-08T10:29:47;8.70;;;8.00;;
13816;SDS011;6979;52.116;5.286;2023-02-08T10:32:30;9.07;;;8.17;;
13816;SDS011;6979;52.116;5.286;2023-02-08T10:35:09;9.23;;;8.33;;
13816;SDS011;6979;52.116;5.286;2023-02-08T10:37:41;7.90;;;7.13;;
13816;SDS011;6979;52.116;5.286;2023-02-08T10:40:19;8.30;;;7.60;;
13816;SDS011;6979;52.116;5.286;2023-02-08T10:42:56;8.83;;;8.03;;
13816;SDS011;6979;52.116;5.286;2023-02-08T10:45:29;7.70;;;7.10;;
13816;SDS011;6979;52.116;5.286;2023-02-08T10:48:00;7.20;;;6.70;;
13816;SDS011;6979;52.116;5.286;2023-02-08T10:50:33;8.27;;;7.50;;
13816;SDS011;6979;52.116;5.286;2023-02-08T10:53:02;8.70;;;7.93;;
13816;SDS011;6979;52.116;5.286;2023-02-08T10:55:30;8.20;;;7.50;;
13816;SDS011;6979;52.116;5.286;2023-02-08T10:58:09;8.60;;;7.90;;
13816;SDS011;6979;52.116;5.286;2023-02-08T11:00:41;7.97;;;7.33;;
13816;SDS011;6979;52.116;5.286;2023-02-08T11:03:12;7.83;;;7.23;;
13816;SDS011;6979;52.116;5.286;2023-02-08T11:05:42;7.97;;;7.27;;
13816;SDS011;6979;52.116;5.286;2023-02-08T11:08:12;9.03;;;8.23;;
13816;SDS011;6979;52.116;5.286;2023-02-08T11:10:44;9.07;;;8.23;;
13816;SDS011;6979;52.116;5.286;2023-02-08T11:13:20;7.83;;;7.23;;
13816;SDS011;6979;52.116;5.286;2023-02-08T11:15:47;8.10;;;7.50;;
13816;SDS011;6979;52.116;5.286;2023-02-08T11:18:18;8.43;;;7.60;;
13816;SDS011;6979;52.116;5.286;2023-02-08T11:20:50;8.53;;;7.83;;
13816;SDS011;6979;52.116;5.286;2023-02-08T11:23:22;8.63;;;7.93;;
13816;SDS011;6979;52.116;5.286;2023-02-08T11:25:52;8.63;;;7.97;;
13816;SDS011;6979;52.116;5.286;2023-02-08T11:28:27;7.63;;;6.93;;
13816;SDS011;6979;52.116;5.286;2023-02-08T11:30:56;8.07;;;7.37;;
13816;SDS011;6979;52.116;5.286;2023-02-08T11:33:25;7.30;;;6.70;;
13816;SDS011;6979;52.116;5.286;2023-02-08T11:35:55;7.40;;;6.90;;
13816;SDS011;6979;52.116;5.286;2023-02-08T11:38:24;7.20;;;6.70;;
13816;SDS011;6979;52.116;5.286;2023-02-08T11:40:57;7.77;;;7.17;;
13816;SDS011;6979;52.116;5.286;2023-02-08T11:43:27;7.77;;;7.17;;
13816;SDS011;6979;52.116;5.286;2023-02-08T11:45:56;6.33;;;5.93;;
13816;SDS011;6979;52.116;5.286;2023-02-08T11:48:25;7.40;;;6.73;;
13816;SDS011;6979;52.116;5.286;2023-02-08T11:50:59;7.50;;;6.90;;
13816;SDS011;6979;52.116;5.286;2023-02-08T11:53:37;7.23;;;6.63;;
13816;SDS011;6979;52.116;5.286;2023-02-08T11:56:12;7.23;;;6.63;;
13816;SDS011;6979;52.116;5.286;2023-02-08T12:01:45;7.00;;;6.47;;
13816;SDS011;6979;52.116;5.286;2023-02-08T12:04:12;6.13;;;5.73;;
13816;SDS011;6979;52.116;5.286;2023-02-08T12:06:48;6.97;;;6.47;;
13816;SDS011;6979;52.116;5.286;2023-02-08T12:09:45;7.17;;;6.67;;
13816;SDS011;6979;52.116;5.286;2023-02-08T12:12:24;6.63;;;6.13;;
13816;SDS011;6979;52.116;5.286;2023-02-08T12:15:02;7.53;;;6.90;;
13816;SDS011;6979;52.116;5.286;2023-02-08T12:17:38;7.80;;;7.17;;
13816;SDS011;6979;52.116;5.286;2023-02-08T12:20:23;7.13;;;6.53;;
13816;SDS011;6979;52.116;5.286;2023-02-08T12:23:09;7.17;;;6.57;;
13816;SDS011;6979;52.116;5.286;2023-02-08T12:25:49;7.83;;;7.13;;
13816;SDS011;6979;52.116;5.286;2023-02-08T12:28:24;7.20;;;6.60;;
13816;SDS011;6979;52.116;5.286;2023-02-08T12:31:00;8.03;;;7.33;;
13816;SDS011;6979;52.116;5.286;2023-02-08T12:33:38;8.23;;;7.47;;
13816;SDS011;6979;52.116;5.286;2023-02-08T12:36:26;8.63;;;7.80;;
13816;SDS011;6979;52.116;5.286;2023-02-08T12:39:14;8.10;;;7.40;;
13816;SDS011;6979;52.116;5.286;2023-02-08T12:42:17;8.20;;;7.50;;
13816;SDS011;6979;52.116;5.286;2023-02-08T12:44:57;7.30;;;6.70;;
13816;SDS011;6979;52.116;5.286;2023-02-08T12:47:38;7.57;;;6.97;;
13816;SDS011;6979;52.116;5.286;2023-02-08T12:50:15;7.57;;;7.00;;
13816;SDS011;6979;52.116;5.286;2023-02-08T12:52:49;8.87;;;8.07;;
13816;SDS011;6979;52.116;5.286;2023-02-08T12:55:21;7.37;;;6.77;;
13816;SDS011;6979;52.116;5.286;2023-02-08T12:57:51;9.40;;;8.47;;
13816;SDS011;6979;52.116;5.286;2023-02-08T13:00:24;8.13;;;7.47;;
13816;SDS011;6979;52.116;5.286;2023-02-08T13:02:55;7.60;;;6.90;;
13816;SDS011;6979;52.116;5.286;2023-02-08T13:05:29;9.13;;;8.43;;
13816;SDS011;6979;52.116;5.286;2023-02-08T13:08:01;10.50;;;9.60;;
13816;SDS011;6979;52.116;5.286;2023-02-08T13:10:35;7.67;;;7.00;;
13816;SDS011;6979;52.116;5.286;2023-02-08T13:13:11;7.43;;;6.83;;
13816;SDS011;6979;52.116;5.286;2023-02-08T13:15:45;6.73;;;6.23;;
13816;SDS011;6979;52.116;5.286;2023-02-08T13:18:19;7.50;;;6.80;;
13816;SDS011;6979;52.116;5.286;2023-02-08T13:20:50;7.67;;;7.03;;
13816;SDS011;6979;52.116;5.286;2023-02-08T13:23:20;7.63;;;6.97;;
13816;SDS011;6979;52.116;5.286;2023-02-08T13:25:56;7.17;;;6.47;;
13816;SDS011;6979;52.116;5.286;2023-02-08T13:28:26;7.13;;;6.63;;
13816;SDS011;6979;52.116;5.286;2023-02-08T13:30:55;7.33;;;6.73;;
13816;SDS011;6979;52.116;5.286;2023-02-08T13:33:31;7.47;;;6.77;;
13816;SDS011;6979;52.116;5.286;2023-02-08T13:36:01;7.97;;;7.37;;
13816;SDS011;6979;52.116;5.286;2023-02-08T13:38:29;7.10;;;6.57;;
13816;SDS011;6979;52.116;5.286;2023-02-08T13:41:04;7.47;;;6.87;;
13816;SDS011;6979;52.116;5.286;2023-02-08T13:43:39;8.33;;;7.63;;
13816;SDS011;6979;52.116;5.286;2023-02-08T13:46:09;8.00;;;7.30;;
13816;SDS011;6979;52.116;5.286;2023-02-08T13:48:40;7.80;;;7.10;;
13816;SDS011;6979;52.116;5.286;2023-02-08T13:54:22;7.97;;;7.27;;
13816;SDS011;6979;52.116;5.286;2023-02-08T13:56:51;7.40;;;6.80;;
13816;SDS011;6979;52.116;5.286;2023-02-08T13:59:31;7.83;;;7.23;;
13816;SDS011;6979;52.116;5.286;2023-02-08T14:04:52;7.90;;;7.20;;
13816;SDS011;6979;52.116;5.286;2023-02-08T14:07:26;8.43;;;7.73;;
13816;SDS011;6979;52.116;5.286;2023-02-08T14:10:16;8.37;;;7.67;;
13816;SDS011;6979;52.116;5.286;2023-02-08T14:12:57;7.47;;;6.90;;
13816;SDS011;6979;52.116;5.286;2023-02-08T14:15:35;7.57;;;6.93;;
13816;SDS011;6979;52.116;5.286;2023-02-08T14:18:03;7.53;;;6.93;;
13816;SDS011;6979;52.116;5.286;2023-02-08T14:20:44;6.90;;;6.37;;
13816;SDS011;6979;52.116;5.286;2023-02-08T14:23:28;7.77;;;7.17;;
13816;SDS011;6979;52.116;5.286;2023-02-08T14:26:06;7.40;;;6.80;;
13816;SDS011;6979;52.116;5.286;2023-02-08T14:28:37;7.17;;;6.57;;
13816;SDS011;6979;52.116;5.286;2023-02-08T14:31:09;7.63;;;6.93;;
13816;SDS011;6979;52.116;5.286;2023-02-08T14:33:41;6.73;;;6.17;;
13816;SDS011;6979;52.116;5.286;2023-02-08T14:36:19;7.53;;;6.87;;
13816;SDS011;6979;52.116;5.286;2023-02-08T14:41:49;7.00;;;6.43;;
13816;SDS011;6979;52.116;5.286;2023-02-08T14:50:32;7.83;;;7.20;;
13816;SDS011;6979;52.116;5.286;2023-02-08T14:53:05;7.43;;;6.80;;
13816;SDS011;6979;52.116;5.286;2023-02-08T14:55:51;7.53;;;6.83;;
13816;SDS011;6979;52.116;5.286;2023-02-08T14:58:25;7.50;;;6.80;;
13816;SDS011;6979;52.116;5.286;2023-02-08T15:00:56;7.67;;;6.97;;
13816;SDS011;6979;52.116;5.286;2023-02-08T15:03:29;6.90;;;6.30;;
13816;SDS011;6979;52.116;5.286;2023-02-08T15:06:06;6.77;;;6.27;;
13816;SDS011;6979;52.116;5.286;2023-02-08T15:08:54;10.17;;;9.17;;
13816;SDS011;6979;52.116;5.286;2023-02-08T15:11:21;7.67;;;6.77;;
13816;SDS011;6979;52.116;5.286;2023-02-08T15:13:51;7.23;;;6.63;;
13816;SDS011;6979;52.116;5.286;2023-02-08T15:16:22;6.47;;;5.97;;
13816;SDS011;6979;52.116;5.286;2023-02-08T15:18:52;5.87;;;5.47;;
13816;SDS011;6979;52.116;5.286;2023-02-08T15:21:21;7.53;;;5.40;;
13816;SDS011;6979;52.116;5.286;2023-02-08T15:24:01;5.80;;;5.40;;
13816;SDS011;6979;52.116;5.286;2023-02-08T15:26:33;5.13;;;4.73;;
13816;SDS011;6979;52.116;5.286;2023-02-08T15:29:00;6.17;;;5.70;;
13816;SDS011;6979;52.116;5.286;2023-02-08T15:31:31;5.43;;;5.03;;
13816;SDS011;6979;52.116;5.286;2023-02-08T15:33:59;6.37;;;5.77;;
13816;SDS011;6979;52.116;5.286;2023-02-08T15:36:28;6.50;;;5.90;;
13816;SDS011;6979;52.116;5.286;2023-02-08T15:38:58;5.80;;;5.17;;
13816;SDS011;6979;52.116;5.286;2023-02-08T15:41:29;4.63;;;4.23;;